Time;durP1;ratioP1;P1;durP2;ratioP2;P2;SDS_P1;SDS_P2;PMS_P1;PMS_P2;Temp;Humidity;BMP_temperature;BMP_pressure;BME280_temperature;BME280_humidity;BME280_pressure;Samples;Min_cycle;Max_cycle;Signal;HPM_P1;HPM_P2
2021/06/06 00:00:50;;;;;;;10.13;9.20;;;;;23.70;101131.00;;;;2041443;29;20219;-74
2021/06/06 00:01:50;;;;;;;8.98;8.27;;;;;23.70;101132.00;;;;2041139;29;20223;-74
2021/06/06 00:02:51;;;;;;;9.90;9.00;;;;;23.70;101128.00;;;;2042064;29;20249;-75
2021/06/06 00:03:54;;;;;;;10.55;9.65;;;;;23.70;101123.00;;;;2042574;28;20303;-74
2021/06/06 00:04:54;;;;;;;9.77;8.98;;;;;23.70;101122.00;;;;2042116;29;20236;-74
2021/06/06 00:06:00;;;;;;;10.40;9.50;;;;;23.70;101126.00;;;;2042203;29;20221;-74
2021/06/06 00:07:00;;;;;;;9.43;8.63;;;;;23.70;101125.00;;;;2042536;28;20232;-74
2021/06/06 00:08:00;;;;;;;10.47;9.43;;;;;23.70;101119.00;;;;2043294;28;20310;-74
2021/06/06 00:09:01;;;;;;;10.40;9.40;;;;;23.70;101122.00;;;;2043180;28;20223;-74
2021/06/06 00:10:03;;;;;;;10.27;9.23;;;;;23.70;101128.00;;;;2042739;28;20322;-74
2021/06/06 00:11:07;;;;;;;9.65;8.85;;;;;23.70;101133.00;;;;2042417;29;20271;-74
2021/06/06 00:12:08;;;;;;;8.93;8.23;;;;;23.70;101129.00;;;;2042772;28;20313;-74
2021/06/06 00:13:08;;;;;;;10.10;9.10;;;;;23.70;101130.00;;;;2042988;28;20220;-74
2021/06/06 00:14:13;;;;;;;8.90;8.10;;;;;23.70;101134.00;;;;2034586;29;20226;-74
2021/06/06 00:15:15;;;;;;;8.57;7.88;;;;;23.70;101129.00;;;;2034754;29;20588;-74
2021/06/06 00:16:20;;;;;;;9.07;8.27;;;;;23.70;101129.00;;;;2034370;29;20310;-74
2021/06/06 00:17:20;;;;;;;9.98;9.07;;;;;23.70;101124.00;;;;2035215;29;20272;-74
2021/06/06 00:18:21;;;;;;;9.80;8.90;;;;;23.70;101126.00;;;;2042364;29;20248;-74
2021/06/06 00:19:22;;;;;;;9.30;8.50;;;;;23.70;101128.00;;;;2043428;28;20228;-74
2021/06/06 00:20:26;;;;;;;8.90;8.10;;;;;23.70;101137.00;;;;2045821;28;20231;-74
2021/06/06 00:21:27;;;;;;;8.15;7.50;;;;;23.70;101132.00;;;;2044181;28;20634;-74
2021/06/06 00:22:27;;;;;;;9.27;8.47;;;;;23.70;101134.00;;;;2046195;28;20348;-74
2021/06/06 00:23:29;;;;;;;10.33;9.33;;;;;23.70;101142.00;;;;2043447;28;20961;-74
2021/06/06 00:24:31;;;;;;;9.77;8.88;;;;;23.70;101142.00;;;;2042303;28;20579;-73
2021/06/06 00:25:31;;;;;;;10.13;9.20;;;;;23.70;101142.00;;;;2042324;29;20629;-74
2021/06/06 00:26:32;;;;;;;8.90;8.10;;;;;23.70;101142.00;;;;2034482;29;20214;-74
2021/06/06 00:27:32;;;;;;;9.57;8.77;;;;;23.70;101146.00;;;;2042018;29;20248;-74
2021/06/06 00:28:32;;;;;;;10.30;9.37;;;;;23.70;101146.00;;;;2043036;28;20311;-74
2021/06/06 00:29:33;;;;;;;10.63;9.73;;;;;23.70;101142.00;;;;2042893;28;20702;-74
2021/06/06 00:30:34;;;;;;;10.80;9.83;;;;;23.70;101145.00;;;;2042885;29;20588;-74
2021/06/06 00:31:34;;;;;;;10.35;9.45;;;;;23.70;101139.00;;;;2034454;29;20646;-74
2021/06/06 00:32:35;;;;;;;10.13;9.23;;;;;23.70;101147.00;;;;2034921;29;20221;-74
2021/06/06 00:33:35;;;;;;;11.13;10.10;;;;;23.70;101142.00;;;;2042706;29;20801;-74
2021/06/06 00:34:36;;;;;;;10.30;9.40;;;;;23.70;101142.00;;;;2042735;29;20251;-73
2021/06/06 00:35:36;;;;;;;10.20;9.30;;;;;23.70;101143.00;;;;2041732;29;20282;-74
2021/06/06 00:36:36;;;;;;;10.50;9.60;;;;;23.70;101148.00;;;;2042916;28;20239;-73
2021/06/06 00:37:37;;;;;;;9.70;8.90;;;;;23.70;101147.00;;;;2042958;29;20237;-74
2021/06/06 00:38:37;;;;;;;10.23;9.30;;;;;23.70;101154.00;;;;2042981;28;20220;-73
2021/06/06 00:39:37;;;;;;;9.17;8.37;;;;;23.70;101149.00;;;;2042129;29;20216;-73
2021/06/06 00:40:38;;;;;;;10.20;9.30;;;;;23.70;101149.00;;;;2034417;29;21148;-73
2021/06/06 00:41:39;;;;;;;10.97;9.97;;;;;23.70;101157.00;;;;2041431;29;20227;-74
2021/06/06 00:42:39;;;;;;;9.63;8.82;;;;;23.70;101141.00;;;;2035192;29;20230;-74
2021/06/06 00:43:40;;;;;;;10.10;9.10;;;;;23.70;101151.00;;;;2036344;29;20213;-74
2021/06/06 00:44:40;;;;;;;10.20;9.20;;;;;23.70;101151.00;;;;2044289;29;20220;-74
2021/06/06 00:45:40;;;;;;;9.93;9.07;;;;;23.70;101157.00;;;;2045164;28;20216;-74
2021/06/06 00:46:41;;;;;;;9.17;8.37;;;;;23.70;101149.00;;;;2045058;28;20220;-74
2021/06/06 00:47:41;;;;;;;9.90;9.00;;;;;23.70;101151.00;;;;2044918;28;20592;-74
2021/06/06 00:48:41;;;;;;;9.90;9.03;;;;;23.70;101154.00;;;;2044768;28;20204;-74
2021/06/06 00:49:42;;;;;;;10.23;9.33;;;;;23.70;101154.00;;;;2044843;28;20215;-74
2021/06/06 00:50:44;;;;;;;10.37;9.47;;;;;23.70;101153.00;;;;2046437;29;20306;-74
2021/06/06 00:52:03;;;;;;;9.25;8.45;;;;;23.70;101154.00;;;;2043181;29;20228;-74
2021/06/06 00:53:06;;;;;;;9.23;8.43;;;;;23.70;101154.00;;;;2042941;29;20267;-73
2021/06/06 00:54:13;;;;;;;9.20;8.40;;;;;23.70;101152.00;;;;2028463;29;20868;-74
2021/06/06 00:55:13;;;;;;;9.05;8.15;;;;;23.70;101139.00;;;;2030036;29;20329;-73
2021/06/06 00:56:17;;;;;;;8.30;7.60;;;;;23.70;101146.00;;;;2036540;29;20229;-74
2021/06/06 00:57:22;;;;;;;9.35;8.55;;;;;23.70;101155.00;;;;2036672;29;20361;-74
2021/06/06 00:58:23;;;;;;;10.05;9.05;;;;;23.70;101145.00;;;;2037197;29;20224;-74
2021/06/06 00:59:24;;;;;;;9.13;8.33;;;;;23.70;101147.00;;;;2036258;29;20276;-74
2021/06/06 01:00:41;;;;;;;9.98;9.05;;;;;23.70;101155.00;;;;2028181;29;20308;-74
2021/06/06 01:01:42;;;;;;;9.73;8.93;;;;;23.70;101150.00;;;;2023801;29;20222;-74
2021/06/06 01:02:42;;;;;;;10.50;9.47;;;;;23.70;101154.00;;;;2036713;29;20305;-74
2021/06/06 01:03:46;;;;;;;9.53;8.70;;;;;23.70;101162.00;;;;2044337;28;20212;-74
2021/06/06 01:04:47;;;;;;;9.63;8.73;;;;;23.70;101155.00;;;;2044281;28;20216;-73
2021/06/06 01:05:54;;;;;;;11.27;10.27;;;;;23.70;101151.00;;;;2044254;28;20283;-74
2021/06/06 01:06:54;;;;;;;8.50;7.82;;;;;23.70;101147.00;;;;2040378;29;20272;-74
2021/06/06 01:07:55;;;;;;;9.80;8.93;;;;;23.60;101149.00;;;;2044043;29;20240;-74
2021/06/06 01:08:55;;;;;;;9.57;8.63;;;;;23.70;101151.00;;;;2044254;29;20225;-74
2021/06/06 01:09:55;;;;;;;10.40;9.50;;;;;23.70;101150.00;;;;2044722;28;20300;-74
2021/06/06 01:11:03;;;;;;;10.00;9.10;;;;;23.70;101153.00;;;;2044602;28;20270;-74
2021/06/06 01:12:18;;;;;;;9.57;8.73;;;;;23.70;101154.00;;;;2035689;29;20214;-74
2021/06/06 01:13:25;;;;;;;9.25;8.40;;;;;23.70;101153.00;;;;2022033;29;20226;-74
2021/06/06 01:14:33;;;;;;;8.90;8.07;;;;;23.70;101147.00;;;;2034352;29;20312;-74
2021/06/06 01:15:35;;;;;;;10.32;9.43;;;;;23.70;101156.00;;;;2040324;29;20231;-74
2021/06/06 01:16:42;;;;;;;9.63;8.82;;;;;23.70;101148.00;;;;2033561;29;20228;-72
2021/06/06 01:17:54;;;;;;;8.80;8.10;;;;;23.70;101141.00;;;;2031674;29;20213;-74
2021/06/06 01:18:54;;;;;;;9.63;8.82;;;;;23.70;101149.00;;;;2031563;29;20219;-74
2021/06/06 01:20:17;;;;;;;10.67;9.77;;;;;23.60;101148.00;;;;2037829;29;20229;-74
2021/06/06 01:21:48;;;;;;;10.07;9.18;;;;;23.70;101150.00;;;;2033420;29;20217;-74
2021/06/06 01:22:52;;;;;;;9.10;8.30;;;;;23.70;101155.00;;;;2038938;29;20788;-74
2021/06/06 01:24:04;;;;;;;10.10;9.20;;;;;23.70;101153.00;;;;2044136;29;20220;-74
2021/06/06 01:25:44;;;;;;;9.70;8.90;;;;;23.70;101152.00;;;;2034721;29;20600;-74
2021/06/06 01:26:50;;;;;;;10.90;9.90;;;;;23.60;101151.00;;;;2037228;28;20777;-73
2021/06/06 01:27:54;;;;;;;8.90;8.10;;;;;23.70;101160.00;;;;2031454;29;20222;-74
2021/06/06 01:29:01;;;;;;;10.15;9.25;;;;;23.70;101155.00;;;;2036799;29;20229;-74
2021/06/06 01:30:07;;;;;;;10.88;9.88;;;;;23.60;101150.00;;;;2036339;29;20213;-74
2021/06/06 01:31:07;;;;;;;10.60;9.70;;;;;23.70;101159.00;;;;2027234;29;20224;-73
2021/06/06 01:32:23;;;;;;;10.50;9.60;;;;;23.70;101156.00;;;;2027251;29;20312;-73
2021/06/06 01:33:28;;;;;;;10.20;9.30;;;;;23.70;101163.00;;;;2031179;29;20640;-74
2021/06/06 01:34:29;;;;;;;9.07;8.38;;;;;23.70;101155.00;;;;2035691;29;20233;-74
2021/06/06 01:35:31;;;;;;;9.80;8.93;;;;;23.70;101161.00;;;;2028188;29;20261;-74
2021/06/06 01:36:34;;;;;;;10.90;9.90;;;;;23.70;101149.00;;;;2035751;29;20731;-74
2021/06/06 01:37:35;;;;;;;9.55;8.75;;;;;23.70;101146.00;;;;2028652;29;20221;-74
2021/06/06 01:38:46;;;;;;;8.60;7.90;;;;;23.70;101150.00;;;;2031308;29;20632;-74
2021/06/06 01:39:53;;;;;;;10.32;9.43;;;;;23.70;101151.00;;;;2036647;29;20217;-73
2021/06/06 01:40:55;;;;;;;10.35;9.40;;;;;23.70;101148.00;;;;2028761;29;20219;-74
2021/06/06 01:41:58;;;;;;;10.23;9.30;;;;;23.70;101152.00;;;;2035947;29;20206;-74
2021/06/06 01:43:01;;;;;;;10.40;9.40;;;;;23.70;101136.00;;;;2027537;29;21994;-74
2021/06/06 01:44:03;;;;;;;9.05;8.25;;;;;23.70;101142.00;;;;2036620;29;20241;-74
2021/06/06 01:45:09;;;;;;;8.57;7.88;;;;;23.70;101146.00;;;;2035775;29;20217;-74
2021/06/06 01:46:32;;;;;;;10.25;9.25;;;;;23.60;101141.00;;;;2034394;29;20231;-73
2021/06/06 01:47:32;;;;;;;9.18;8.30;;;;;23.60;101138.00;;;;2043254;29;20223;-74
2021/06/06 01:48:33;;;;;;;10.77;9.73;;;;;23.60;101142.00;;;;2035606;29;20257;-74
2021/06/06 01:49:35;;;;;;;9.73;8.90;;;;;23.70;101128.00;;;;2035408;29;20251;-74
2021/06/06 01:50:44;;;;;;;8.82;8.10;;;;;23.60;101145.00;;;;2039065;29;20684;-74
2021/06/06 01:51:46;;;;;;;9.95;8.95;;;;;23.60;101142.00;;;;2029048;29;20875;-73
2021/06/06 01:52:47;;;;;;;10.38;9.48;;;;;23.70;101146.00;;;;2038197;29;21083;-74
2021/06/06 01:53:47;;;;;;;10.80;9.80;;;;;23.60;101136.00;;;;2030398;29;20265;-73
2021/06/06 01:54:48;;;;;;;9.67;8.80;;;;;23.60;101141.00;;;;2035297;29;20220;-74
2021/06/06 01:55:50;;;;;;;10.27;9.37;;;;;23.60;101130.00;;;;2023524;29;20229;-74
2021/06/06 01:56:51;;;;;;;8.60;7.80;;;;;23.60;101144.00;;;;2031736;29;20233;-74
2021/06/06 01:57:52;;;;;;;9.73;8.87;;;;;23.60;101138.00;;;;2011478;29;20717;-74
2021/06/06 01:58:56;;;;;;;9.60;8.70;;;;;23.60;101138.00;;;;2027644;29;20214;-74
2021/06/06 01:59:57;;;;;;;9.77;8.98;;;;;23.70;101142.00;;;;2034418;29;21074;-74
2021/06/06 02:00:59;;;;;;;10.30;9.40;;;;;23.60;101141.00;;;;2034868;29;20280;-74
2021/06/06 02:02:00;;;;;;;9.45;8.55;;;;;23.70;101141.00;;;;2042672;29;20216;-74
2021/06/06 02:03:01;;;;;;;9.87;9.07;;;;;23.60;101138.00;;;;2034978;29;20221;-74
2021/06/06 02:04:03;;;;;;;9.73;8.95;;;;;23.70;101143.00;;;;2027285;29;20621;-74
2021/06/06 02:05:09;;;;;;;10.55;9.65;;;;;23.60;101140.00;;;;2027347;29;20598;-74
2021/06/06 02:06:12;;;;;;;9.38;8.48;;;;;23.70;101136.00;;;;2025549;29;20292;-74
2021/06/06 02:07:12;;;;;;;9.10;8.30;;;;;23.60;101136.00;;;;2025544;29;20589;-73
2021/06/06 02:08:15;;;;;;;9.90;9.10;;;;;23.60;101135.00;;;;2037281;29;20217;-72
2021/06/06 02:09:19;;;;;;;8.90;8.10;;;;;23.70;101140.00;;;;2038663;29;20218;-74
2021/06/06 02:10:35;;;;;;;9.75;8.95;;;;;23.60;101125.00;;;;2029191;29;20316;-74
2021/06/06 02:11:39;;;;;;;10.50;9.60;;;;;23.60;101134.00;;;;2025390;29;20301;-74
2021/06/06 02:12:40;;;;;;;10.55;9.57;;;;;23.60;101140.00;;;;2030012;29;20218;-74
2021/06/06 02:14:02;;;;;;;9.65;8.75;;;;;23.60;101139.00;;;;2035947;29;20406;-74
2021/06/06 02:15:07;;;;;;;9.98;9.13;;;;;23.60;101131.00;;;;2040726;28;20239;-74
2021/06/06 02:16:07;;;;;;;9.18;8.38;;;;;23.60;101135.00;;;;2043527;29;20223;-74
2021/06/06 02:17:14;;;;;;;9.00;8.20;;;;;23.60;101137.00;;;;2040905;29;20223;-74
2021/06/06 02:18:15;;;;;;;9.65;8.85;;;;;23.60;101134.00;;;;2042539;29;20227;-72
2021/06/06 02:19:15;;;;;;;9.13;8.33;;;;;23.60;101141.00;;;;2034589;29;20231;-73
2021/06/06 02:20:16;;;;;;;10.73;9.83;;;;;23.60;101140.00;;;;2044935;29;20366;-73
2021/06/06 02:21:17;;;;;;;10.27;9.37;;;;;23.60;101140.00;;;;2043566;29;20290;-74
2021/06/06 02:22:17;;;;;;;10.38;9.40;;;;;23.60;101135.00;;;;2043900;29;20219;-73
2021/06/06 02:23:23;;;;;;;9.83;8.93;;;;;23.70;101136.00;;;;2034715;29;20263;-73
2021/06/06 02:24:24;;;;;;;9.10;8.35;;;;;23.60;101134.00;;;;2035442;29;20220;-74
2021/06/06 02:25:24;;;;;;;9.63;8.83;;;;;23.60;101143.00;;;;2034835;29;20279;-73
2021/06/06 02:26:42;;;;;;;9.57;8.67;;;;;23.60;101127.00;;;;2034546;29;20222;-74
2021/06/06 02:27:58;;;;;;;10.68;9.65;;;;;23.60;101136.00;;;;2037290;29;20249;-74
2021/06/06 02:29:13;;;;;;;9.63;8.82;;;;;23.60;101144.00;;;;2030926;29;20217;-74
2021/06/06 02:30:14;;;;;;;9.57;8.82;;;;;23.60;101139.00;;;;2037570;29;20276;-74
2021/06/06 02:31:30;;;;;;;10.23;9.32;;;;;23.60;101126.00;;;;2042336;29;20268;-74
2021/06/06 02:32:42;;;;;;;11.68;10.57;;;;;23.60;101142.00;;;;2030492;29;20216;-74
2021/06/06 02:33:51;;;;;;;8.75;7.95;;;;;23.60;101128.00;;;;2040720;29;20227;-74
2021/06/06 02:35:19;;;;;;;10.30;9.40;;;;;23.60;101138.00;;;;2036583;29;20244;-74
2021/06/06 02:36:19;;;;;;;9.10;8.30;;;;;23.60;101133.00;;;;2042574;28;20220;-73
2021/06/06 02:37:27;;;;;;;9.93;9.03;;;;;23.60;101140.00;;;;2035589;29;20218;-73
2021/06/06 02:38:38;;;;;;;10.43;9.45;;;;;23.60;101133.00;;;;2036586;29;20228;-73
2021/06/06 02:39:39;;;;;;;8.50;7.72;;;;;23.60;101146.00;;;;2034512;29;20235;-74
2021/06/06 02:40:56;;;;;;;9.57;8.73;;;;;23.60;101137.00;;;;2035425;29;20221;-74
2021/06/06 02:42:00;;;;;;;10.57;9.60;;;;;23.60;101142.00;;;;2028986;29;20261;-74
2021/06/06 02:43:05;;;;;;;9.75;8.85;;;;;23.60;101146.00;;;;2032450;29;20222;-74
2021/06/06 02:44:10;;;;;;;9.98;9.18;;;;;23.60;101138.00;;;;2034623;29;20218;-74
2021/06/06 02:45:15;;;;;;;9.95;9.10;;;;;23.60;101142.00;;;;2035778;29;20221;-74
2021/06/06 02:46:17;;;;;;;9.00;8.20;;;;;23.60;101140.00;;;;2035817;29;20214;-74
2021/06/06 02:47:20;;;;;;;9.30;8.50;;;;;23.60;101140.00;;;;2035605;29;20233;-74
2021/06/06 02:48:44;;;;;;;9.50;8.70;;;;;23.60;101140.00;;;;2035950;28;20221;-74
2021/06/06 02:49:44;;;;;;;8.80;8.10;;;;;23.60;101140.00;;;;2043597;29;20217;-74
2021/06/06 02:50:44;;;;;;;8.53;7.83;;;;;23.60;101130.00;;;;2031586;29;20366;-74
2021/06/06 02:51:59;;;;;;;10.10;9.27;;;;;23.60;101140.00;;;;2026193;29;20227;-74
2021/06/06 02:53:06;;;;;;;9.38;8.50;;;;;23.60;101138.00;;;;2037657;29;20712;-74
2021/06/06 02:54:10;;;;;;;9.57;8.77;;;;;23.60;101144.00;;;;2022337;29;20328;-74
2021/06/06 02:55:22;;;;;;;10.07;9.18;;;;;23.60;101137.00;;;;2039698;29;20245;-74
2021/06/06 02:56:23;;;;;;;9.30;8.60;;;;;23.60;101145.00;;;;2027119;29;20761;-73
2021/06/06 02:57:24;;;;;;;9.05;8.25;;;;;23.60;101136.00;;;;2035538;29;20225;-74
2021/06/06 02:58:42;;;;;;;9.00;8.30;;;;;23.60;101140.00;;;;2034994;29;20328;-74
2021/06/06 02:59:54;;;;;;;8.50;7.80;;;;;23.60;101142.00;;;;2037386;29;20217;-74
2021/06/06 03:01:17;;;;;;;8.95;8.15;;;;;23.60;101136.00;;;;2033990;29;20218;-74
2021/06/06 03:02:19;;;;;;;9.18;8.38;;;;;23.60;101123.00;;;;2038718;29;20244;-74
2021/06/06 03:03:31;;;;;;;9.30;8.50;;;;;23.60;101137.00;;;;2034974;29;20394;-74
2021/06/06 03:04:32;;;;;;;9.25;8.55;;;;;23.60;101132.00;;;;2036336;29;20668;-74
2021/06/06 03:05:32;;;;;;;9.02;8.32;;;;;23.60;101141.00;;;;2034461;29;20261;-74
2021/06/06 03:06:35;;;;;;;9.67;8.87;;;;;23.60;101133.00;;;;2026493;29;20741;-74
2021/06/06 03:07:40;;;;;;;8.63;7.93;;;;;23.60;101130.00;;;;2043279;29;20213;-74
2021/06/06 03:08:40;;;;;;;8.48;7.78;;;;;23.60;101130.00;;;;2035396;29;20715;-74
2021/06/06 03:09:41;;;;;;;8.10;7.40;;;;;23.60;101133.00;;;;2035409;29;20225;-74
2021/06/06 03:10:42;;;;;;;9.73;8.90;;;;;23.60;101136.00;;;;2042319;29;20238;-74
2021/06/06 03:11:43;;;;;;;9.55;8.68;;;;;23.60;101136.00;;;;2042803;29;20231;-74
2021/06/06 03:12:43;;;;;;;9.45;8.65;;;;;23.60;101135.00;;;;2038626;29;20232;-74
2021/06/06 03:13:46;;;;;;;8.33;7.63;;;;;23.60;101144.00;;;;2034921;29;20545;-74
2021/06/06 03:14:47;;;;;;;9.35;8.55;;;;;23.60;101139.00;;;;2026585;29;20221;-74
2021/06/06 03:15:51;;;;;;;8.70;7.90;;;;;23.60;101142.00;;;;2019259;29;20225;-74
2021/06/06 03:17:02;;;;;;;9.00;8.20;;;;;23.60;101140.00;;;;2026634;29;20601;-74
2021/06/06 03:18:03;;;;;;;8.80;8.10;;;;;23.60;101136.00;;;;2022157;29;20225;-74
2021/06/06 03:19:04;;;;;;;9.13;8.33;;;;;23.60;101139.00;;;;2027397;29;20214;-74
2021/06/06 03:20:16;;;;;;;7.60;7.00;;;;;23.60;101136.00;;;;2033736;29;20596;-74
2021/06/06 03:21:31;;;;;;;9.20;8.40;;;;;23.60;101144.00;;;;2029078;29;20308;-74
2021/06/06 03:22:33;;;;;;;9.10;8.32;;;;;23.60;101145.00;;;;2022591;29;20252;-74
2021/06/06 03:23:34;;;;;;;9.35;8.48;;;;;23.60;101135.00;;;;2027360;29;20218;-74
2021/06/06 03:24:42;;;;;;;9.63;8.73;;;;;23.60;101149.00;;;;2042612;29;20872;-74
2021/06/06 03:25:54;;;;;;;8.35;7.65;;;;;23.60;101145.00;;;;2027818;29;20575;-74
2021/06/06 03:26:55;;;;;;;8.57;7.88;;;;;23.60;101143.00;;;;2033820;29;20233;-74
2021/06/06 03:27:55;;;;;;;8.50;7.80;;;;;23.60;101144.00;;;;2038106;29;20245;-70
2021/06/06 03:28:55;;;;;;;9.40;8.60;;;;;23.60;101142.00;;;;2035201;29;20752;-72
2021/06/06 03:30:04;;;;;;;9.63;8.87;;;;;23.60;101145.00;;;;2042762;29;20288;-73
2021/06/06 03:31:06;;;;;;;8.57;7.88;;;;;23.60;101136.00;;;;2028191;29;20218;-74
2021/06/06 03:32:08;;;;;;;8.45;7.75;;;;;23.60;101150.00;;;;2034858;29;20795;-74
2021/06/06 03:33:13;;;;;;;9.20;8.30;;;;;23.60;101144.00;;;;2030355;29;20361;-74
2021/06/06 03:34:14;;;;;;;9.15;8.35;;;;;23.60;101144.00;;;;2030563;29;20300;-74
2021/06/06 03:35:14;;;;;;;9.10;8.30;;;;;23.60;101141.00;;;;2036197;29;20232;-74
2021/06/06 03:36:18;;;;;;;8.80;8.10;;;;;23.60;101148.00;;;;2042117;29;20227;-74
2021/06/06 03:37:18;;;;;;;8.90;8.10;;;;;23.60;101138.00;;;;2042504;29;20225;-74
2021/06/06 03:38:19;;;;;;;8.77;8.00;;;;;23.60;101148.00;;;;2043467;28;20221;-74
2021/06/06 03:39:26;;;;;;;7.93;7.33;;;;;23.60;101146.00;;;;2043663;28;20713;-74
2021/06/06 03:40:28;;;;;;;8.68;7.97;;;;;23.60;101145.00;;;;2034808;29;20223;-70
2021/06/06 03:41:29;;;;;;;9.13;8.43;;;;;23.60;101144.00;;;;2031882;29;20815;-73
2021/06/06 03:42:30;;;;;;;7.60;7.00;;;;;23.60;101143.00;;;;2046596;29;20228;-73
2021/06/06 03:43:31;;;;;;;8.38;7.68;;;;;23.60;101141.00;;;;2042998;28;20236;-74
2021/06/06 03:44:31;;;;;;;8.53;7.83;;;;;23.60;101134.00;;;;2042485;29;20238;-74
2021/06/06 03:45:31;;;;;;;7.80;7.10;;;;;23.60;101134.00;;;;2042349;29;20299;-74
2021/06/06 03:46:32;;;;;;;8.37;7.67;;;;;23.60;101139.00;;;;2042149;29;20323;-74
2021/06/06 03:47:33;;;;;;;8.70;8.00;;;;;23.60;101133.00;;;;2042483;29;20299;-74
2021/06/06 03:48:33;;;;;;;8.73;7.97;;;;;23.60;101144.00;;;;2043258;28;21009;-74
2021/06/06 03:49:33;;;;;;;8.40;7.70;;;;;23.60;101140.00;;;;2035009;29;20738;-73
2021/06/06 03:50:34;;;;;;;7.83;7.23;;;;;23.60;101114.00;;;;2037334;29;20556;-74
2021/06/06 03:51:35;;;;;;;8.98;8.07;;;;;23.60;101133.00;;;;2042628;29;20631;-74
2021/06/06 03:52:35;;;;;;;8.37;7.67;;;;;23.60;101139.00;;;;2035063;29;20252;-74
2021/06/06 03:53:36;;;;;;;7.27;6.77;;;;;23.60;101134.00;;;;2034587;29;20221;-74
2021/06/06 03:54:37;;;;;;;8.90;8.10;;;;;23.60;101135.00;;;;2026826;29;20708;-74
2021/06/06 03:55:37;;;;;;;8.60;7.87;;;;;23.60;101130.00;;;;2034973;29;20656;-74
2021/06/06 03:56:38;;;;;;;7.70;7.10;;;;;23.60;101124.00;;;;2034756;29;20700;-74
2021/06/06 03:57:39;;;;;;;8.30;7.60;;;;;23.60;101149.00;;;;2027297;29;20719;-74
2021/06/06 03:58:39;;;;;;;8.27;7.53;;;;;23.60;101134.00;;;;2035046;29;20222;-74
2021/06/06 03:59:39;;;;;;;8.40;7.70;;;;;23.60;101143.00;;;;2043426;28;20220;-74
2021/06/06 04:00:42;;;;;;;8.43;7.73;;;;;23.60;101135.00;;;;2043376;28;20216;-74
2021/06/06 04:01:42;;;;;;;7.55;6.95;;;;;23.60;101134.00;;;;2042512;28;20270;-74
2021/06/06 04:02:43;;;;;;;8.40;7.70;;;;;23.60;101137.00;;;;2042322;29;20278;-74
2021/06/06 04:03:44;;;;;;;8.60;7.90;;;;;23.60;101143.00;;;;2042277;29;20212;-74
2021/06/06 04:04:44;;;;;;;8.23;7.53;;;;;23.60;101133.00;;;;2042329;29;20786;-74
2021/06/06 04:05:44;;;;;;;8.10;7.43;;;;;23.60;101136.00;;;;2042460;29;20675;-74
2021/06/06 04:06:45;;;;;;;7.90;7.20;;;;;23.60;101137.00;;;;2043117;28;20558;-74
2021/06/06 04:07:46;;;;;;;8.40;7.70;;;;;23.60;101140.00;;;;2043561;28;20259;-74
2021/06/06 04:08:47;;;;;;;8.32;7.68;;;;;23.60;101147.00;;;;2042762;29;20228;-74
2021/06/06 04:09:47;;;;;;;8.50;7.80;;;;;23.60;101136.00;;;;2035068;29;20249;-74
2021/06/06 04:10:48;;;;;;;8.70;7.87;;;;;23.60;101146.00;;;;2043001;29;20272;-74
2021/06/06 04:11:48;;;;;;;8.60;7.90;;;;;23.60;101144.00;;;;2043038;28;20227;-74
2021/06/06 04:12:49;;;;;;;8.77;7.97;;;;;23.60;101139.00;;;;2042554;29;20209;-74
2021/06/06 04:13:51;;;;;;;8.17;7.47;;;;;23.60;101140.00;;;;2034511;29;20227;-74
2021/06/06 04:14:51;;;;;;;7.90;7.25;;;;;23.60;101139.00;;;;2042335;29;20231;-74
2021/06/06 04:15:51;;;;;;;8.60;7.90;;;;;23.60;101140.00;;;;2042932;28;20232;-74
2021/06/06 04:16:52;;;;;;;7.90;7.27;;;;;23.60;101131.00;;;;2042533;28;20354;-74
2021/06/06 04:17:52;;;;;;;8.77;8.07;;;;;23.60;101131.00;;;;2042438;28;20234;-74
2021/06/06 04:18:53;;;;;;;8.30;7.50;;;;;23.60;101129.00;;;;2042715;29;20235;-74
2021/06/06 04:19:55;;;;;;;7.30;6.70;;;;;23.60;101129.00;;;;2038326;29;20248;-74
2021/06/06 04:20:56;;;;;;;8.23;7.45;;;;;23.60;101130.00;;;;2046463;29;20216;-74
2021/06/06 04:21:56;;;;;;;8.40;7.68;;;;;23.60;101130.00;;;;2045628;28;20291;-74
2021/06/06 04:22:57;;;;;;;8.23;7.53;;;;;23.60;101137.00;;;;2044113;28;20727;-74
2021/06/06 04:23:57;;;;;;;7.90;7.20;;;;;23.60;101129.00;;;;2043008;28;20747;-74
2021/06/06 04:24:57;;;;;;;7.87;7.27;;;;;23.50;101133.00;;;;2043500;28;20680;-74
2021/06/06 04:25:58;;;;;;;7.60;7.00;;;;;23.60;101135.00;;;;2043545;28;20224;-74
2021/06/06 04:26:58;;;;;;;7.77;7.17;;;;;23.60;101124.00;;;;2043335;28;20228;-74
2021/06/06 04:27:58;;;;;;;7.60;7.00;;;;;23.60;101131.00;;;;2043360;28;20252;-74
2021/06/06 04:28:59;;;;;;;8.47;7.77;;;;;23.60;101137.00;;;;2043470;28;20579;-74
2021/06/06 04:29:59;;;;;;;7.50;6.90;;;;;23.60;101131.00;;;;2042742;29;20764;-74
2021/06/06 04:30:59;;;;;;;8.03;7.40;;;;;23.60;101137.00;;;;2041715;29;20220;-74
2021/06/06 04:32:04;;;;;;;7.67;7.07;;;;;23.60;101133.00;;;;2043009;28;20239;-74
2021/06/06 04:33:07;;;;;;;7.90;7.20;;;;;23.60;101131.00;;;;2043010;28;20306;-74
2021/06/06 04:34:08;;;;;;;7.50;6.90;;;;;23.60;101129.00;;;;2033937;29;20234;-74
2021/06/06 04:35:09;;;;;;;7.50;6.90;;;;;23.60;101127.00;;;;2034549;29;20297;-73
2021/06/06 04:36:09;;;;;;;7.60;7.00;;;;;23.60;101131.00;;;;2043325;28;20220;-74
2021/06/06 04:37:10;;;;;;;8.40;7.63;;;;;23.60;101128.00;;;;2042483;28;20684;-74
2021/06/06 04:38:13;;;;;;;7.35;6.75;;;;;23.60;101130.00;;;;2042736;29;20239;-73
2021/06/06 04:39:13;;;;;;;8.15;7.45;;;;;23.60;101134.00;;;;2042766;29;20220;-73
2021/06/06 04:40:14;;;;;;;7.00;6.47;;;;;23.60;101133.00;;;;2042823;29;20722;-74
2021/06/06 04:41:14;;;;;;;7.70;7.10;;;;;23.60;101135.00;;;;2041734;29;20691;-74
2021/06/06 04:42:18;;;;;;;7.60;7.00;;;;;23.60;101131.00;;;;2042206;29;20550;-74
2021/06/06 04:43:18;;;;;;;7.03;6.50;;;;;23.60;101137.00;;;;2042187;29;20215;-74
2021/06/06 04:44:19;;;;;;;6.93;6.40;;;;;23.60;101139.00;;;;2034843;29;20743;-74
2021/06/06 04:45:19;;;;;;;7.97;7.37;;;;;23.50;101139.00;;;;2042285;29;20221;-74
2021/06/06 04:46:20;;;;;;;8.10;7.50;;;;;23.60;101138.00;;;;2042801;28;20221;-74
2021/06/06 04:47:20;;;;;;;7.50;6.90;;;;;23.50;101137.00;;;;2042941;28;20229;-74
2021/06/06 04:48:29;;;;;;;7.07;6.47;;;;;23.60;101135.00;;;;2043227;28;20685;-74
2021/06/06 04:49:30;;;;;;;6.80;6.30;;;;;23.60;101127.00;;;;2042667;29;20235;-74
2021/06/06 04:50:30;;;;;;;7.00;6.50;;;;;23.60;101132.00;;;;2046052;29;20596;-74
2021/06/06 04:51:31;;;;;;;7.57;6.97;;;;;23.60;101144.00;;;;2044225;28;20230;-74
2021/06/06 04:52:36;;;;;;;7.43;6.90;;;;;23.60;101136.00;;;;2035677;29;20220;-74
2021/06/06 04:53:36;;;;;;;7.38;6.88;;;;;23.60;101133.00;;;;2034964;29;20221;-74
2021/06/06 04:54:36;;;;;;;6.97;6.47;;;;;23.50;101140.00;;;;2042964;28;20213;-74
2021/06/06 04:55:37;;;;;;;7.03;6.53;;;;;23.60;101139.00;;;;2042071;29;20236;-74
2021/06/06 04:56:37;;;;;;;7.83;7.13;;;;;23.60;101145.00;;;;2034498;29;20727;-74
2021/06/06 04:57:38;;;;;;;6.80;6.30;;;;;23.60;101141.00;;;;2042508;29;20683;-74
2021/06/06 04:58:38;;;;;;;6.53;6.03;;;;;23.60;101139.00;;;;2041682;29;20850;-72
2021/06/06 04:59:38;;;;;;;7.47;6.87;;;;;23.60;101133.00;;;;2042642;29;20688;-72
2021/06/06 05:00:41;;;;;;;7.23;6.63;;;;;23.60;101145.00;;;;2043398;28;20680;-73
2021/06/06 05:01:42;;;;;;;7.18;6.65;;;;;23.50;101144.00;;;;2042808;28;20212;-74
2021/06/06 05:02:42;;;;;;;6.93;6.40;;;;;23.60;101145.00;;;;2042528;29;20227;-74
2021/06/06 05:03:43;;;;;;;6.70;6.20;;;;;23.50;101142.00;;;;2042160;29;20694;-74
2021/06/06 05:04:43;;;;;;;6.80;6.30;;;;;23.60;101145.00;;;;2042165;29;20224;-74
2021/06/06 05:05:44;;;;;;;7.17;6.57;;;;;23.60;101144.00;;;;2040847;28;20235;-74
2021/06/06 05:06:44;;;;;;;6.90;6.40;;;;;23.50;101145.00;;;;2042670;28;20232;-74
2021/06/06 05:07:49;;;;;;;6.20;5.80;;;;;23.60;101142.00;;;;2042746;28;20225;-74
2021/06/06 05:08:49;;;;;;;6.80;6.28;;;;;23.50;101153.00;;;;2035306;29;20224;-74
2021/06/06 05:09:50;;;;;;;6.90;6.30;;;;;23.50;101150.00;;;;2030659;29;20298;-74
2021/06/06 05:10:50;;;;;;;6.67;6.17;;;;;23.50;101146.00;;;;2034347;29;20217;-74
2021/06/06 05:11:51;;;;;;;7.30;6.70;;;;;23.50;101153.00;;;;2041588;29;20278;-74
2021/06/06 05:12:51;;;;;;;6.47;5.97;;;;;23.60;101151.00;;;;2042132;29;20219;-74